Westhoff, Texas
Current Conditions -  °F | °C
As of 3:55 PM on Wednesday 28 Jan 2015 (Local Time) from KT20 Reporting Station
Clear Clear  
Wind Chill: 80°   Ceiling: Unl
Heat Index: 80°   Visibility: 10mi
Dew Point: 41°   Wind: 13mph
Humidity: 25%   Direction: 180°S
Pressure: 30.08"   Gusts: 16mph
Location:  29.2°N, 97.47°W
Report Text: KT20 282155Z AUTO 18011G14KT 10SM CLR 27/05 A3008 RMK AO2 T02690052
Loading
Personal Weather Stations






























Interactive Weather Map New forecast layout! Learn more

10-Day Weather Forecast

Advertisements
Track Severe Weather on mobile